sensor_id;sensor_type;location;lat;lon;timestamp;temperature;humidity
29725;DHT22;16636;48.394;15.468;2022-09-14T00:00:59;18.00;99.90
29725;DHT22;16636;48.394;15.468;2022-09-14T00:03:25;18.00;99.90
29725;DHT22;16636;48.394;15.468;2022-09-14T00:05:51;18.00;99.90
29725;DHT22;16636;48.394;15.468;2022-09-14T00:08:17;18.00;99.90
29725;DHT22;16636;48.394;15.468;2022-09-14T00:10:45;18.00;99.90
29725;DHT22;16636;48.394;15.468;2022-09-14T00:13:13;18.00;99.90
29725;DHT22;16636;48.394;15.468;2022-09-14T00:15:41;18.00;99.90
29725;DHT22;16636;48.394;15.468;2022-09-14T00:18:09;17.90;99.90
29725;DHT22;16636;48.394;15.468;2022-09-14T00:20:36;17.90;99.90
29725;DHT22;16636;48.394;15.468;2022-09-14T00:23:02;18.00;99.90
29725;DHT22;16636;48.394;15.468;2022-09-14T00:25:29;17.90;99.90
29725;DHT22;16636;48.394;15.468;2022-09-14T00:27:56;17.90;99.90
29725;DHT22;16636;48.394;15.468;2022-09-14T00:30:22;17.90;99.90
29725;DHT22;16636;48.394;15.468;2022-09-14T00:32:49;17.90;99.90
29725;DHT22;16636;48.394;15.468;2022-09-14T00:35:15;17.90;99.90
29725;DHT22;16636;48.394;15.468;2022-09-14T00:37:41;17.90;99.90
29725;DHT22;16636;48.394;15.468;2022-09-14T00:40:08;17.90;99.90
29725;DHT22;16636;48.394;15.468;2022-09-14T00:42:36;17.80;99.90
29725;DHT22;16636;48.394;15.468;2022-09-14T00:45:13;17.80;99.90
29725;DHT22;16636;48.394;15.468;2022-09-14T00:47:39;17.80;99.90
29725;DHT22;16636;48.394;15.468;2022-09-14T00:50:06;17.70;99.90
29725;DHT22;16636;48.394;15.468;2022-09-14T00:52:34;17.70;99.90
29725;DHT22;16636;48.394;15.468;2022-09-14T00:55:05;17.60;99.90
29725;DHT22;16636;48.394;15.468;2022-09-14T00:57:39;17.60;99.90
29725;DHT22;16636;48.394;15.468;2022-09-14T01:00:08;17.60;99.90
29725;DHT22;16636;48.394;15.468;2022-09-14T01:02:35;17.60;99.90
29725;DHT22;16636;48.394;15.468;2022-09-14T01:05:01;17.60;99.90
29725;DHT22;16636;48.394;15.468;2022-09-14T01:10:49;17.60;99.90
29725;DHT22;16636;48.394;15.468;2022-09-14T01:18:57;17.60;99.90
29725;DHT22;16636;48.394;15.468;2022-09-14T01:21:27;17.50;99.90
29725;DHT22;16636;48.394;15.468;2022-09-14T01:34:50;17.60;99.90
29725;DHT22;16636;48.394;15.468;2022-09-14T01:37:26;17.60;99.90
29725;DHT22;16636;48.394;15.468;2022-09-14T01:39:59;17.60;99.90
29725;DHT22;16636;48.394;15.468;2022-09-14T01:42:26;17.60;99.90
29725;DHT22;16636;48.394;15.468;2022-09-14T01:44:57;17.60;99.90
29725;DHT22;16636;48.394;15.468;2022-09-14T01:47:33;17.50;99.90
29725;DHT22;16636;48.394;15.468;2022-09-14T01:50:09;17.50;99.90
29725;DHT22;16636;48.394;15.468;2022-09-14T01:53:29;17.50;99.90
29725;DHT22;16636;48.394;15.468;2022-09-14T01:55:41;17.50;99.90
29725;DHT22;16636;48.394;15.468;2022-09-14T01:58:13;17.50;99.90
29725;DHT22;16636;48.394;15.468;2022-09-14T02:00:45;17.50;99.90
29725;DHT22;16636;48.394;15.468;2022-09-14T02:03:16;17.50;99.90
29725;DHT22;16636;48.394;15.468;2022-09-14T02:05:55;17.50;99.90
29725;DHT22;16636;48.394;15.468;2022-09-14T02:08:25;17.50;99.90
29725;DHT22;16636;48.394;15.468;2022-09-14T02:10:52;17.50;99.90
29725;DHT22;16636;48.394;15.468;2022-09-14T02:13:18;17.50;99.90
29725;DHT22;16636;48.394;15.468;2022-09-14T02:15:44;17.50;99.90
29725;DHT22;16636;48.394;15.468;2022-09-14T02:18:10;17.50;99.90
29725;DHT22;16636;48.394;15.468;2022-09-14T02:20:54;17.50;99.90
29725;DHT22;16636;48.394;15.468;2022-09-14T02:23:22;17.50;99.90
29725;DHT22;16636;48.394;15.468;2022-09-14T02:25:48;17.50;99.90
29725;DHT22;16636;48.394;15.468;2022-09-14T02:28:15;17.50;99.90
29725;DHT22;16636;48.394;15.468;2022-09-14T02:33:31;17.50;99.90
29725;DHT22;16636;48.394;15.468;2022-09-14T02:36:09;17.50;99.90
29725;DHT22;16636;48.394;15.468;2022-09-14T02:38:49;17.40;99.90
29725;DHT22;16636;48.394;15.468;2022-09-14T02:43:49;17.40;99.90
29725;DHT22;16636;48.394;15.468;2022-09-14T02:49:15;17.40;99.90
29725;DHT22;16636;48.394;15.468;2022-09-14T02:54:26;17.40;99.90
29725;DHT22;16636;48.394;15.468;2022-09-14T02:56:53;17.40;99.90
29725;DHT22;16636;48.394;15.468;2022-09-14T02:59:19;17.30;99.90
29725;DHT22;16636;48.394;15.468;2022-09-14T03:01:45;17.30;99.90
29725;DHT22;16636;48.394;15.468;2022-09-14T03:04:11;17.40;99.90
29725;DHT22;16636;48.394;15.468;2022-09-14T03:06:37;17.40;99.90
29725;DHT22;16636;48.394;15.468;2022-09-14T03:09:03;17.40;99.90
29725;DHT22;16636;48.394;15.468;2022-09-14T03:11:35;17.40;99.90
29725;DHT22;16636;48.394;15.468;2022-09-14T03:14:01;17.40;99.90
29725;DHT22;16636;48.394;15.468;2022-09-14T03:16:28;17.40;99.90
29725;DHT22;16636;48.394;15.468;2022-09-14T03:18:54;17.40;99.90
29725;DHT22;16636;48.394;15.468;2022-09-14T03:21:20;17.40;99.90
29725;DHT22;16636;48.394;15.468;2022-09-14T03:23:47;17.40;99.90
29725;DHT22;16636;48.394;15.468;2022-09-14T03:26:19;17.40;99.90
29725;DHT22;16636;48.394;15.468;2022-09-14T03:28:54;17.40;99.90
29725;DHT22;16636;48.394;15.468;2022-09-14T03:31:20;17.30;99.90
29725;DHT22;16636;48.394;15.468;2022-09-14T03:33:46;17.30;99.90
29725;DHT22;16636;48.394;15.468;2022-09-14T03:36:15;17.30;99.90
29725;DHT22;16636;48.394;15.468;2022-09-14T03:38:46;17.30;99.90
29725;DHT22;16636;48.394;15.468;2022-09-14T03:41:13;17.30;99.90
29725;DHT22;16636;48.394;15.468;2022-09-14T03:43:39;17.30;99.90
29725;DHT22;16636;48.394;15.468;2022-09-14T03:46:10;17.20;99.90
29725;DHT22;16636;48.394;15.468;2022-09-14T03:48:37;17.20;99.90
29725;DHT22;16636;48.394;15.468;2022-09-14T03:51:06;17.20;99.90
29725;DHT22;16636;48.394;15.468;2022-09-14T03:53:33;17.20;99.90
29725;DHT22;16636;48.394;15.468;2022-09-14T03:55:59;17.30;99.90
29725;DHT22;16636;48.394;15.468;2022-09-14T03:58:26;17.30;99.90
29725;DHT22;16636;48.394;15.468;2022-09-14T04:00:55;17.30;99.90
29725;DHT22;16636;48.394;15.468;2022-09-14T04:03:22;17.20;99.90
29725;DHT22;16636;48.394;15.468;2022-09-14T04:05:54;17.20;99.90
29725;DHT22;16636;48.394;15.468;2022-09-14T04:08:21;17.20;99.90
29725;DHT22;16636;48.394;15.468;2022-09-14T04:10:47;17.20;99.90
29725;DHT22;16636;48.394;15.468;2022-09-14T04:13:13;17.20;99.90
29725;DHT22;16636;48.394;15.468;2022-09-14T04:15:39;17.20;99.90
29725;DHT22;16636;48.394;15.468;2022-09-14T04:18:05;17.20;99.90
29725;DHT22;16636;48.394;15.468;2022-09-14T04:20:31;17.10;99.90
29725;DHT22;16636;48.394;15.468;2022-09-14T04:22:57;17.10;99.90
29725;DHT22;16636;48.394;15.468;2022-09-14T04:25:23;17.10;99.90
29725;DHT22;16636;48.394;15.468;2022-09-14T04:27:49;17.10;99.90
29725;DHT22;16636;48.394;15.468;2022-09-14T04:30:15;17.10;99.90
29725;DHT22;16636;48.394;15.468;2022-09-14T04:32:41;17.10;99.90
29725;DHT22;16636;48.394;15.468;2022-09-14T04:35:09;17.10;99.90
29725;DHT22;16636;48.394;15.468;2022-09-14T04:37:44;17.10;99.90
29725;DHT22;16636;48.394;15.468;2022-09-14T04:40:10;17.10;99.90
29725;DHT22;16636;48.394;15.468;2022-09-14T04:42:35;17.10;99.90
29725;DHT22;16636;48.394;15.468;2022-09-14T04:45:01;17.10;99.90
29725;DHT22;16636;48.394;15.468;2022-09-14T04:47:29;17.20;99.90
29725;DHT22;16636;48.394;15.468;2022-09-14T04:49:55;17.20;99.90
29725;DHT22;16636;48.394;15.468;2022-09-14T04:52:20;17.20;99.90
29725;DHT22;16636;48.394;15.468;2022-09-14T04:54:47;17.10;99.90
29725;DHT22;16636;48.394;15.468;2022-09-14T04:57:13;17.10;99.90
29725;DHT22;16636;48.394;15.468;2022-09-14T04:59:39;17.10;99.90
29725;DHT22;16636;48.394;15.468;2022-09-14T05:02:05;17.10;99.90
29725;DHT22;16636;48.394;15.468;2022-09-14T05:04:30;17.10;99.90
29725;DHT22;16636;48.394;15.468;2022-09-14T05:06:56;17.10;99.90
29725;DHT22;16636;48.394;15.468;2022-09-14T05:09:22;17.10;99.90
29725;DHT22;16636;48.394;15.468;2022-09-14T05:11:48;17.10;99.90
29725;DHT22;16636;48.394;15.468;2022-09-14T05:14:16;17.10;99.90
29725;DHT22;16636;48.394;15.468;2022-09-14T05:16:43;17.10;99.90
29725;DHT22;16636;48.394;15.468;2022-09-14T05:19:13;17.00;99.90
29725;DHT22;16636;48.394;15.468;2022-09-14T05:21:39;17.00;99.90
29725;DHT22;16636;48.394;15.468;2022-09-14T05:24:12;17.00;99.90
29725;DHT22;16636;48.394;15.468;2022-09-14T05:26:40;17.00;99.90
29725;DHT22;16636;48.394;15.468;2022-09-14T05:29:11;17.10;99.90
29725;DHT22;16636;48.394;15.468;2022-09-14T05:31:38;17.10;99.90
29725;DHT22;16636;48.394;15.468;2022-09-14T05:34:04;17.10;99.90
29725;DHT22;16636;48.394;15.468;2022-09-14T05:36:29;17.10;99.90
29725;DHT22;16636;48.394;15.468;2022-09-14T05:38:55;17.10;99.90
29725;DHT22;16636;48.394;15.468;2022-09-14T05:41:25;17.10;99.90
29725;DHT22;16636;48.394;15.468;2022-09-14T05:43:51;17.10;99.90
29725;DHT22;16636;48.394;15.468;2022-09-14T05:46:17;17.10;99.90
29725;DHT22;16636;48.394;15.468;2022-09-14T05:48:47;17.10;99.90
29725;DHT22;16636;48.394;15.468;2022-09-14T05:51:18;17.10;99.90
29725;DHT22;16636;48.394;15.468;2022-09-14T05:56:15;17.10;99.90
29725;DHT22;16636;48.394;15.468;2022-09-14T05:58:41;17.10;99.90
29725;DHT22;16636;48.394;15.468;2022-09-14T06:03:37;17.20;99.90
29725;DHT22;16636;48.394;15.468;2022-09-14T06:06:05;17.20;99.90
29725;DHT22;16636;48.394;15.468;2022-09-14T06:08:31;17.20;99.90
29725;DHT22;16636;48.394;15.468;2022-09-14T06:11:05;17.20;99.90
29725;DHT22;16636;48.394;15.468;2022-09-14T06:13:32;17.20;99.90
29725;DHT22;16636;48.394;15.468;2022-09-14T06:16:03;17.20;99.90
29725;DHT22;16636;48.394;15.468;2022-09-14T06:18:31;17.20;99.90
29725;DHT22;16636;48.394;15.468;2022-09-14T06:20:57;17.20;99.90
29725;DHT22;16636;48.394;15.468;2022-09-14T06:23:24;17.20;99.90
29725;DHT22;16636;48.394;15.468;2022-09-14T06:29:13;17.20;99.90
29725;DHT22;16636;48.394;15.468;2022-09-14T06:31:39;17.20;99.90
29725;DHT22;16636;48.394;15.468;2022-09-14T06:34:05;17.20;99.90
29725;DHT22;16636;48.394;15.468;2022-09-14T06:36:31;17.20;99.90
29725;DHT22;16636;48.394;15.468;2022-09-14T06:38:58;17.20;99.90
29725;DHT22;16636;48.394;15.468;2022-09-14T06:41:26;17.20;99.90
29725;DHT22;16636;48.394;15.468;2022-09-14T06:43:56;17.20;99.90
29725;DHT22;16636;48.394;15.468;2022-09-14T06:46:28;17.20;99.90
29725;DHT22;16636;48.394;15.468;2022-09-14T06:48:57;17.30;99.90
29725;DHT22;16636;48.394;15.468;2022-09-14T06:51:27;17.30;99.90
29725;DHT22;16636;48.394;15.468;2022-09-14T06:53:55;17.30;99.90
29725;DHT22;16636;48.394;15.468;2022-09-14T06:56:21;17.30;99.90
29725;DHT22;16636;48.394;15.468;2022-09-14T06:58:47;17.30;99.90
29725;DHT22;16636;48.394;15.468;2022-09-14T07:01:16;17.30;99.90
29725;DHT22;16636;48.394;15.468;2022-09-14T07:03:44;17.30;99.90
29725;DHT22;16636;48.394;15.468;2022-09-14T07:06:20;17.30;99.90
29725;DHT22;16636;48.394;15.468;2022-09-14T07:08:47;17.30;99.90
29725;DHT22;16636;48.394;15.468;2022-09-14T07:11:14;17.40;99.90
29725;DHT22;16636;48.394;15.468;2022-09-14T07:13:42;17.40;99.90
29725;DHT22;16636;48.394;15.468;2022-09-14T07:16:08;17.40;99.90
29725;DHT22;16636;48.394;15.468;2022-09-14T07:18:35;17.40;99.90
29725;DHT22;16636;48.394;15.468;2022-09-14T07:21:05;17.40;99.90
29725;DHT22;16636;48.394;15.468;2022-09-14T07:23:33;17.50;99.90
29725;DHT22;16636;48.394;15.468;2022-09-14T07:26:04;17.50;99.90
29725;DHT22;16636;48.394;15.468;2022-09-14T07:31:43;17.50;99.90
29725;DHT22;16636;48.394;15.468;2022-09-14T07:34:10;17.50;99.90
29725;DHT22;16636;48.394;15.468;2022-09-14T07:36:37;17.50;99.90
29725;DHT22;16636;48.394;15.468;2022-09-14T07:39:05;17.60;99.90
29725;DHT22;16636;48.394;15.468;2022-09-14T07:41:31;17.60;99.90
29725;DHT22;16636;48.394;15.468;2022-09-14T07:44:00;17.50;99.90
29725;DHT22;16636;48.394;15.468;2022-09-14T07:46:27;17.50;99.90
29725;DHT22;16636;48.394;15.468;2022-09-14T07:48:55;17.50;99.90
29725;DHT22;16636;48.394;15.468;2022-09-14T07:51:21;17.60;99.90
29725;DHT22;16636;48.394;15.468;2022-09-14T07:53:48;17.60;99.90
29725;DHT22;16636;48.394;15.468;2022-09-14T07:56:14;17.50;99.90
29725;DHT22;16636;48.394;15.468;2022-09-14T07:58:42;17.50;99.90
29725;DHT22;16636;48.394;15.468;2022-09-14T08:01:10;17.50;99.90
29725;DHT22;16636;48.394;15.468;2022-09-14T08:03:37;17.50;99.90
29725;DHT22;16636;48.394;15.468;2022-09-14T08:06:07;17.50;99.90
29725;DHT22;16636;48.394;15.468;2022-09-14T08:08:36;17.50;99.90
29725;DHT22;16636;48.394;15.468;2022-09-14T08:11:10;17.60;99.90
29725;DHT22;16636;48.394;15.468;2022-09-14T08:13:38;17.50;99.90
29725;DHT22;16636;48.394;15.468;2022-09-14T08:16:04;17.60;99.90
29725;DHT22;16636;48.394;15.468;2022-09-14T08:18:32;17.60;99.90
29725;DHT22;16636;48.394;15.468;2022-09-14T08:21:28;17.60;99.90
29725;DHT22;16636;48.394;15.468;2022-09-14T08:23:54;17.60;99.90
29725;DHT22;16636;48.394;15.468;2022-09-14T08:26:24;17.70;99.90
29725;DHT22;16636;48.394;15.468;2022-09-14T08:28:51;17.70;99.90
29725;DHT22;16636;48.394;15.468;2022-09-14T08:31:20;17.70;99.90
29725;DHT22;16636;48.394;15.468;2022-09-14T08:33:49;17.70;99.90
29725;DHT22;16636;48.394;15.468;2022-09-14T08:36:17;17.70;99.90
29725;DHT22;16636;48.394;15.468;2022-09-14T08:38:44;17.70;99.90
29725;DHT22;16636;48.394;15.468;2022-09-14T08:44:15;17.70;99.90
29725;DHT22;16636;48.394;15.468;2022-09-14T08:47:00;17.70;99.90
29725;DHT22;16636;48.394;15.468;2022-09-14T08:50:08;17.70;99.90
29725;DHT22;16636;48.394;15.468;2022-09-14T08:58:31;17.80;99.90
29725;DHT22;16636;48.394;15.468;2022-09-14T09:06:35;17.80;99.90
29725;DHT22;16636;48.394;15.468;2022-09-14T09:09:23;17.80;99.90
29725;DHT22;16636;48.394;15.468;2022-09-14T09:11:54;17.80;99.90
29725;DHT22;16636;48.394;15.468;2022-09-14T09:14:37;17.80;99.90
29725;DHT22;16636;48.394;15.468;2022-09-14T09:17:21;17.90;99.90
29725;DHT22;16636;48.394;15.468;2022-09-14T09:22:19;17.90;99.90
29725;DHT22;16636;48.394;15.468;2022-09-14T09:24:50;18.00;99.90
29725;DHT22;16636;48.394;15.468;2022-09-14T09:27:38;18.00;99.90
29725;DHT22;16636;48.394;15.468;2022-09-14T09:30:05;18.00;99.90
29725;DHT22;16636;48.394;15.468;2022-09-14T09:32:33;18.00;99.90
29725;DHT22;16636;48.394;15.468;2022-09-14T09:35:22;18.00;99.90
29725;DHT22;16636;48.394;15.468;2022-09-14T09:38:17;18.10;99.90
29725;DHT22;16636;48.394;15.468;2022-09-14T09:40:48;18.10;99.90
29725;DHT22;16636;48.394;15.468;2022-09-14T09:43:17;18.20;99.90
29725;DHT22;16636;48.394;15.468;2022-09-14T09:48:18;18.20;99.90
29725;DHT22;16636;48.394;15.468;2022-09-14T09:50:51;18.30;99.90
29725;DHT22;16636;48.394;15.468;2022-09-14T09:53:21;18.30;99.90
29725;DHT22;16636;48.394;15.468;2022-09-14T09:55:49;18.30;99.90
29725;DHT22;16636;48.394;15.468;2022-09-14T09:58:30;18.30;99.90
29725;DHT22;16636;48.394;15.468;2022-09-14T10:01:13;18.30;99.90
29725;DHT22;16636;48.394;15.468;2022-09-14T10:03:43;18.30;99.90
29725;DHT22;16636;48.394;15.468;2022-09-14T10:06:16;18.30;99.90
29725;DHT22;16636;48.394;15.468;2022-09-14T10:08:44;18.30;99.90
29725;DHT22;16636;48.394;15.468;2022-09-14T10:11:44;18.30;99.90
29725;DHT22;16636;48.394;15.468;2022-09-14T10:16:49;18.30;99.90
29725;DHT22;16636;48.394;15.468;2022-09-14T10:19:20;18.30;99.90
29725;DHT22;16636;48.394;15.468;2022-09-14T10:22:14;18.30;99.90
29725;DHT22;16636;48.394;15.468;2022-09-14T10:25:00;18.40;99.90
29725;DHT22;16636;48.394;15.468;2022-09-14T10:27:43;18.40;99.90
29725;DHT22;16636;48.394;15.468;2022-09-14T10:30:15;18.40;99.90
29725;DHT22;16636;48.394;15.468;2022-09-14T10:36:30;18.50;99.90
29725;DHT22;16636;48.394;15.468;2022-09-14T10:47:28;18.70;99.90
29725;DHT22;16636;48.394;15.468;2022-09-14T10:58:36;18.90;99.90
29725;DHT22;16636;48.394;15.468;2022-09-14T11:04:05;19.10;99.90
29725;DHT22;16636;48.394;15.468;2022-09-14T11:09:50;19.10;99.90
29725;DHT22;16636;48.394;15.468;2022-09-14T11:28:07;19.30;99.90
29725;DHT22;16636;48.394;15.468;2022-09-14T11:30:44;19.30;99.90
29725;DHT22;16636;48.394;15.468;2022-09-14T11:37:07;19.40;99.90
29725;DHT22;16636;48.394;15.468;2022-09-14T11:40:06;19.40;99.90
29725;DHT22;16636;48.394;15.468;2022-09-14T11:42:34;19.50;99.90
29725;DHT22;16636;48.394;15.468;2022-09-14T11:45:18;19.50;99.90
29725;DHT22;16636;48.394;15.468;2022-09-14T11:47:54;19.40;99.90
29725;DHT22;16636;48.394;15.468;2022-09-14T11:50:25;19.50;99.90
29725;DHT22;16636;48.394;15.468;2022-09-14T11:53:08;19.50;99.90
29725;DHT22;16636;48.394;15.468;2022-09-14T11:55:35;19.50;99.90
29725;DHT22;16636;48.394;15.468;2022-09-14T11:58:05;19.50;99.90
29725;DHT22;16636;48.394;15.468;2022-09-14T12:00:45;19.60;99.90
29725;DHT22;16636;48.394;15.468;2022-09-14T12:11:58;19.70;99.90
29725;DHT22;16636;48.394;15.468;2022-09-14T12:17:22;20.00;99.90
29725;DHT22;16636;48.394;15.468;2022-09-14T12:19:50;20.30;99.90
29725;DHT22;16636;48.394;15.468;2022-09-14T12:27:39;20.70;99.90
29725;DHT22;16636;48.394;15.468;2022-09-14T12:47:48;22.40;99.90
29725;DHT22;16636;48.394;15.468;2022-09-14T12:50:18;22.40;99.90
29725;DHT22;16636;48.394;15.468;2022-09-14T12:53:10;22.60;99.90
29725;DHT22;16636;48.394;15.468;2022-09-14T12:56:01;22.90;99.90
29725;DHT22;16636;48.394;15.468;2022-09-14T13:04:02;23.10;99.90
29725;DHT22;16636;48.394;15.468;2022-09-14T13:06:39;23.20;99.90
29725;DHT22;16636;48.394;15.468;2022-09-14T13:09:16;23.40;99.90
29725;DHT22;16636;48.394;15.468;2022-09-14T13:11:43;23.30;99.90
29725;DHT22;16636;48.394;15.468;2022-09-14T13:14:16;23.40;99.90
29725;DHT22;16636;48.394;15.468;2022-09-14T13:16:45;23.40;99.90
29725;DHT22;16636;48.394;15.468;2022-09-14T13:19:25;23.60;99.90
29725;DHT22;16636;48.394;15.468;2022-09-14T13:21:53;23.80;99.90
29725;DHT22;16636;48.394;15.468;2022-09-14T13:24:42;23.80;99.90
29725;DHT22;16636;48.394;15.468;2022-09-14T13:27:32;24.00;99.90
29725;DHT22;16636;48.394;15.468;2022-09-14T13:30:06;24.20;99.90
29725;DHT22;16636;48.394;15.468;2022-09-14T13:32:40;24.30;99.90
29725;DHT22;16636;48.394;15.468;2022-09-14T13:35:15;24.40;99.90
29725;DHT22;16636;48.394;15.468;2022-09-14T13:37:41;24.60;99.90
29725;DHT22;16636;48.394;15.468;2022-09-14T13:40:07;24.40;99.90
29725;DHT22;16636;48.394;15.468;2022-09-14T13:42:34;24.40;99.90
29725;DHT22;16636;48.394;15.468;2022-09-14T13:45:00;24.60;99.90
29725;DHT22;16636;48.394;15.468;2022-09-14T13:47:59;24.70;99.90
29725;DHT22;16636;48.394;15.468;2022-09-14T13:50:25;24.90;99.90
29725;DHT22;16636;48.394;15.468;2022-09-14T13:52:52;24.80;99.90
29725;DHT22;16636;48.394;15.468;2022-09-14T14:00:53;24.80;99.90
29725;DHT22;16636;48.394;15.468;2022-09-14T14:05:58;25.20;99.90
29725;DHT22;16636;48.394;15.468;2022-09-14T14:10:57;25.50;99.90
29725;DHT22;16636;48.394;15.468;2022-09-14T14:13:25;25.50;99.90
29725;DHT22;16636;48.394;15.468;2022-09-14T14:15:52;25.60;99.90
29725;DHT22;16636;48.394;15.468;2022-09-14T14:18:39;25.60;99.90
29725;DHT22;16636;48.394;15.468;2022-09-14T14:24:59;25.40;99.90
29725;DHT22;16636;48.394;15.468;2022-09-14T14:27:46;25.30;99.90
29725;DHT22;16636;48.394;15.468;2022-09-14T14:30:17;25.30;99.90
29725;DHT22;16636;48.394;15.468;2022-09-14T14:32:52;25.20;99.90
29725;DHT22;16636;48.394;15.468;2022-09-14T14:35:22;25.10;99.90
29725;DHT22;16636;48.394;15.468;2022-09-14T14:37:49;25.10;99.90
29725;DHT22;16636;48.394;15.468;2022-09-14T14:40:16;25.00;99.90
29725;DHT22;16636;48.394;15.468;2022-09-14T14:42:43;24.80;99.90
29725;DHT22;16636;48.394;15.468;2022-09-14T14:45:18;24.70;99.90
29725;DHT22;16636;48.394;15.468;2022-09-14T14:47:46;24.60;99.90
29725;DHT22;16636;48.394;15.468;2022-09-14T14:50:18;24.60;99.90
29725;DHT22;16636;48.394;15.468;2022-09-14T14:52:44;24.50;99.90
29725;DHT22;16636;48.394;15.468;2022-09-14T14:55:10;24.50;99.90
29725;DHT22;16636;48.394;15.468;2022-09-14T14:57:36;24.40;99.90
29725;DHT22;16636;48.394;15.468;2022-09-14T15:00:18;24.20;99.90
29725;DHT22;16636;48.394;15.468;2022-09-14T15:06:39;24.00;99.90
29725;DHT22;16636;48.394;15.468;2022-09-14T15:09:08;24.00;99.90
29725;DHT22;16636;48.394;15.468;2022-09-14T15:11:41;24.00;99.90
29725;DHT22;16636;48.394;15.468;2022-09-14T15:14:14;23.90;99.90
29725;DHT22;16636;48.394;15.468;2022-09-14T15:16:41;23.80;99.90
29725;DHT22;16636;48.394;15.468;2022-09-14T15:19:07;23.80;99.90
29725;DHT22;16636;48.394;15.468;2022-09-14T15:21:39;23.80;99.90
29725;DHT22;16636;48.394;15.468;2022-09-14T15:24:05;23.70;99.90
29725;DHT22;16636;48.394;15.468;2022-09-14T15:26:31;23.60;99.90
29725;DHT22;16636;48.394;15.468;2022-09-14T15:28:58;23.50;99.90
29725;DHT22;16636;48.394;15.468;2022-09-14T15:31:24;23.50;99.90
29725;DHT22;16636;48.394;15.468;2022-09-14T15:33:50;23.40;99.90
29725;DHT22;16636;48.394;15.468;2022-09-14T15:39:00;23.30;99.90
29725;DHT22;16636;48.394;15.468;2022-09-14T15:41:32;23.20;99.90
29725;DHT22;16636;48.394;15.468;2022-09-14T15:43:58;23.20;99.90
29725;DHT22;16636;48.394;15.468;2022-09-14T15:46:24;23.20;99.90
29725;DHT22;16636;48.394;15.468;2022-09-14T15:48:50;23.20;99.90
29725;DHT22;16636;48.394;15.468;2022-09-14T15:51:16;23.10;99.90
29725;DHT22;16636;48.394;15.468;2022-09-14T15:53:44;23.10;99.90
29725;DHT22;16636;48.394;15.468;2022-09-14T15:56:12;23.10;99.90
29725;DHT22;16636;48.394;15.468;2022-09-14T15:58:38;23.10;99.90
29725;DHT22;16636;48.394;15.468;2022-09-14T16:01:07;23.00;99.90
29725;DHT22;16636;48.394;15.468;2022-09-14T16:03:33;23.00;99.90
29725;DHT22;16636;48.394;15.468;2022-09-14T16:05:59;23.00;99.90
29725;DHT22;16636;48.394;15.468;2022-09-14T16:08:26;23.00;99.90
29725;DHT22;16636;48.394;15.468;2022-09-14T16:11:00;23.00;99.90
29725;DHT22;16636;48.394;15.468;2022-09-14T16:13:26;22.90;99.90
29725;DHT22;16636;48.394;15.468;2022-09-14T16:16:10;22.90;99.90
29725;DHT22;16636;48.394;15.468;2022-09-14T16:18:37;22.90;99.90
29725;DHT22;16636;48.394;15.468;2022-09-14T16:21:08;22.90;99.90
29725;DHT22;16636;48.394;15.468;2022-09-14T16:23:37;22.90;99.90
29725;DHT22;16636;48.394;15.468;2022-09-14T16:26:16;22.80;99.90
29725;DHT22;16636;48.394;15.468;2022-09-14T16:28:43;22.80;99.90
29725;DHT22;16636;48.394;15.468;2022-09-14T16:31:16;22.80;99.90
29725;DHT22;16636;48.394;15.468;2022-09-14T16:33:45;22.70;99.90
29725;DHT22;16636;48.394;15.468;2022-09-14T16:36:17;22.60;99.90
29725;DHT22;16636;48.394;15.468;2022-09-14T16:38:44;22.60;99.90
29725;DHT22;16636;48.394;15.468;2022-09-14T16:41:11;22.60;99.90
29725;DHT22;16636;48.394;15.468;2022-09-14T16:43:38;22.50;99.90
29725;DHT22;16636;48.394;15.468;2022-09-14T16:46:07;22.50;99.90
29725;DHT22;16636;48.394;15.468;2022-09-14T16:48:34;22.50;99.90
29725;DHT22;16636;48.394;15.468;2022-09-14T16:51:01;22.50;99.90
29725;DHT22;16636;48.394;15.468;2022-09-14T16:53:29;22.40;99.90
29725;DHT22;16636;48.394;15.468;2022-09-14T16:56:02;22.40;99.90
29725;DHT22;16636;48.394;15.468;2022-09-14T16:58:28;22.30;99.90
29725;DHT22;16636;48.394;15.468;2022-09-14T17:00:55;22.30;99.90
29725;DHT22;16636;48.394;15.468;2022-09-14T17:03:21;22.30;99.90
29725;DHT22;16636;48.394;15.468;2022-09-14T17:05:46;22.30;99.90
29725;DHT22;16636;48.394;15.468;2022-09-14T17:08:12;22.30;99.90
29725;DHT22;16636;48.394;15.468;2022-09-14T17:10:38;22.20;99.90
29725;DHT22;16636;48.394;15.468;2022-09-14T17:13:04;22.20;99.90
29725;DHT22;16636;48.394;15.468;2022-09-14T17:15:30;22.10;99.90
29725;DHT22;16636;48.394;15.468;2022-09-14T17:17:56;22.10;99.90
29725;DHT22;16636;48.394;15.468;2022-09-14T17:20:22;22.10;99.90
29725;DHT22;16636;48.394;15.468;2022-09-14T17:22:47;22.00;99.90
29725;DHT22;16636;48.394;15.468;2022-09-14T17:25:13;22.00;99.90
29725;DHT22;16636;48.394;15.468;2022-09-14T17:27:39;21.90;99.90
29725;DHT22;16636;48.394;15.468;2022-09-14T17:30:06;21.90;99.90
29725;DHT22;16636;48.394;15.468;2022-09-14T17:32:35;21.90;99.90
29725;DHT22;16636;48.394;15.468;2022-09-14T17:35:00;21.90;99.90
29725;DHT22;16636;48.394;15.468;2022-09-14T17:37:27;21.80;99.90
29725;DHT22;16636;48.394;15.468;2022-09-14T17:39:53;21.80;99.90
29725;DHT22;16636;48.394;15.468;2022-09-14T17:42:28;21.80;99.90
29725;DHT22;16636;48.394;15.468;2022-09-14T17:44:54;21.80;99.90
29725;DHT22;16636;48.394;15.468;2022-09-14T17:47:20;21.80;99.90
29725;DHT22;16636;48.394;15.468;2022-09-14T17:49:46;21.70;99.90
29725;DHT22;16636;48.394;15.468;2022-09-14T17:52:12;21.70;99.90
29725;DHT22;16636;48.394;15.468;2022-09-14T17:54:37;21.70;99.90
29725;DHT22;16636;48.394;15.468;2022-09-14T17:57:03;21.60;99.90
29725;DHT22;16636;48.394;15.468;2022-09-14T18:02:49;21.60;99.90
29725;DHT22;16636;48.394;15.468;2022-09-14T18:05:15;21.60;99.90
29725;DHT22;16636;48.394;15.468;2022-09-14T18:07:41;21.60;99.90
29725;DHT22;16636;48.394;15.468;2022-09-14T18:10:07;21.60;99.90
29725;DHT22;16636;48.394;15.468;2022-09-14T18:12:33;21.60;99.90
29725;DHT22;16636;48.394;15.468;2022-09-14T18:15:02;21.50;99.90
29725;DHT22;16636;48.394;15.468;2022-09-14T18:17:28;21.50;99.90
29725;DHT22;16636;48.394;15.468;2022-09-14T18:19:54;21.50;99.90
29725;DHT22;16636;48.394;15.468;2022-09-14T18:22:26;21.50;99.90
29725;DHT22;16636;48.394;15.468;2022-09-14T18:24:51;21.50;99.90
29725;DHT22;16636;48.394;15.468;2022-09-14T18:27:17;21.50;99.90